AirNav   Pilot Hours Calculator
 
 1208 users online  

12KY John M Foree Airport
New Castle, Kentucky, USA

GOING TO NEW CASTLE?


FAA INFORMATION EFFECTIVE 26 MARCH 2020

Location

FAA Identifier: 12KY
Lat/Long: 38-27-37.2390N 085-10-06.8360W
38-27.620650N 085-10.113933W
38.4603442,-85.1685656
(estimated)
Elevation: 853 ft. / 260 m (estimated)
Variation: 03W (1985)
From city: 2 miles N of NEW CASTLE, KY
Time zone: UTC -4 (UTC -5 during Standard Time)
Zip code: 40050

Airport Operations

Airport use: Private use. Permission required prior to landing
Activation date: 09/1972
Control tower: no
ARTCC: INDIANAPOLIS CENTER
FSS: LOUISVILLE FLIGHT SERVICE STATION
Attendance: UNATNDD
Wind indicator: yes
Segmented circle: yes
Lights: FOR LIRL RY 13/31 CALL 502-845-7272.

Nearby radio navigation aids

VOR radial/distance  VOR name  Freq  Var
FFTr327/(20.7)FRANKFORT VOR109.4003W
IIUr041/28.8LOUISVILLE VORTAC114.8001E
CVGr217/39.8CINCINNATI VORTAC117.3004W

Airport Services

Airframe service: NONE
Powerplant service: NONE

Runway Information

Runway 13/31

Dimensions: 2500 x 100 ft. / 762 x 30 m
Surface: turf
Runway edge lights: low intensity
RUNWAY 13  RUNWAY 31
Traffic pattern: leftleft

Airport Ownership and Management from official FAA records

Ownership: Privately-owned
Owner: JOHN B. FOREE, DVM
2135 CAMPBELLSBURG ROAD
NEW CASTLE, KY 40050
Phone 502-845-7272
Manager: JOHN B. FOREE, DVM
2135 CAMPBELLSBURG ROAD
NEW CASTLE, KY 40050
Phone 502-845-7272

Airport Operational Statistics

Aircraft based on the field: 3
Single engine airplanes: 2
Multi engine airplanes: 1
    

Additional Remarks

A52-31 50' PLINE E OF LNDG AREA 10' ABV RWY ELEV.
FOR CD CTC LOUISVILLE APCH AT 502-375-7499

Instrument Procedures

There are no published instrument procedures at 12KY.

Some nearby airports with instrument procedures:

KFFT - Capital City Airport (21 nm SE)
KIMS - Madison Municipal Airport (23 nm NW)
KLOU - Bowman Field Airport (27 nm SW)
KJVY - Clark Regional Airport (27 nm W)
KSDF - Louisville Muhammad Ali International Airport (32 nm SW)
 
Loc | Ops | Rwys | IFR | FBO | Links
Com | Nav | Svcs | Stats | Notes
Area around 12KY (John M Foree Airport)
 
Road maps at: MapQuest Bing Google
 
Aerial photo
No photo
 
Sectional chart

 
Airport distance calculator
Flying to John M Foree Airport? Find the distance to fly.

From to 12KY

Sunrise and sunset
Times for 30-Mar-2020
 Local
(UTC-4)
 Zulu
(UTC)
Morning civil twilight07:0111:01
Sunrise07:2811:28
Sunset20:0200:02
Evening civil twilight20:2800:28

Current date and time
Zulu (UTC)  30-Mar-2020 19:52:42
Local (UTC-4)  30-Mar-2020 15:52:42
 
METAR
KFFT 
21nm SE 
301853Z AUTO 27011G20KT 10SM CLR 18/M01 A3012 RMK AO2 SLP198 T01781006
KIMS 
23nm NW 
301935Z AUTO 26010G20KT 10SM CLR 16/00 A3013 RMK AO1
KJVY 
27nm W 
301935Z AUTO 32011KT 10SM CLR 17/M01 A3013 RMK AO2 T01701006
KLOU 
28nm SW 
301853Z 31010G18KT 10SM CLR 18/M01 A3014 RMK AO2 SLP203 T01781011
KSDF 
31nm SW 
301856Z 29012KT 10SM OVC220 18/M01 A3014 RMK AO2 SLP204 T01831011
KLEX 
37nm SE 
301854Z 30009G18KT 10SM CLR 17/02 A3013 RMK AO2 SLP201 T01670017
K27K 
37nm E 
301935Z AUTO 29010G18KT 10SM CLR 16/01 A3011 RMK AO1
TAF
KSDF 
31nm SW 
301730Z 3018/3124 30012G18KT P6SM BKN250 FM302200 34006KT P6SM OVC250 FM311000 03007KT P6SM OVC100 FM311300 04007KT P6SM VCSH OVC040 FM311600 03006KT P6SM VCSH OVC025 FM312100 35011KT P6SM OVC050
KLEX 
37nm SE 
301730Z 3018/3118 28014G21KT P6SM SCT250 FM302300 VRB05KT P6SM OVC250 FM311000 05005KT P6SM OVC100 FM311300 06007KT P6SM OVC050 FM311500 06007KT P6SM VCSH OVC025
NOTAMs
Click for the latest NOTAMs
NOTAMs are issued by the DoD/FAA and will open in a separate window not controlled by AirNav.

 

 
 

Would you like to see your business listed on this page?

 If your business provides an interesting product or service to pilots, flight crews, aircraft, or users of the John M Foree Airport, you should consider listing it here.  To start the listing process, click on the button below
 
Add a business
 

Other Pages about John M Foree Airport

Update a link
 
Copyright © AirNav, LLC. All rights reserved. Privacy Policy  Contact